createdAt,value
2022-08-03T00:00:39.654Z,48.02
2022-08-03T00:03:08.639Z,47.82
2022-08-03T00:05:39.243Z,47.88
2022-08-03T00:08:08.040Z,47.83
2022-08-03T00:10:38.071Z,47.95
2022-08-03T00:13:07.056Z,48.05
2022-08-03T00:15:35.990Z,48.06
2022-08-03T00:18:04.872Z,48.05
2022-08-03T00:20:33.809Z,48.06
2022-08-03T00:23:02.626Z,47.98
2022-08-03T00:25:31.501Z,48.34
2022-08-03T00:28:00.337Z,48.07
2022-08-03T00:30:30.783Z,48.29
2022-08-03T00:33:00.146Z,48.36
2022-08-03T00:35:47.206Z,48.23
2022-08-03T00:38:19.108Z,48.17
2022-08-03T00:40:48.308Z,48.14
2022-08-03T00:43:17.460Z,48.41
2022-08-03T00:45:46.289Z,48.25
2022-08-03T00:48:23.294Z,48.53
2022-08-03T00:51:03.048Z,48.36
2022-08-03T00:53:32.402Z,48.41
2022-08-03T00:56:01.608Z,48.40
2022-08-03T00:58:30.507Z,48.43
2022-08-03T01:00:59.522Z,48.41
2022-08-03T01:03:28.343Z,48.37
2022-08-03T01:06:04.464Z,48.46
2022-08-03T01:08:43.980Z,48.52
2022-08-03T01:11:24.285Z,48.63
2022-08-03T01:14:19.007Z,48.71
2022-08-03T01:16:57.039Z,48.70
2022-08-03T01:19:45.482Z,48.78
2022-08-03T01:22:44.983Z,48.78
2022-08-03T01:25:33.638Z,48.88
2022-08-03T01:28:20.055Z,48.66
2022-08-03T01:30:50.488Z,49.06
2022-08-03T01:33:22.723Z,48.94
2022-08-03T01:35:59.506Z,48.94
2022-08-03T01:38:33.035Z,48.90
2022-08-03T01:41:07.542Z,49.13
2022-08-03T01:44:26.486Z,49.15
2022-08-03T01:46:29.774Z,49.25
2022-08-03T01:49:00.060Z,49.23
2022-08-03T01:52:03.220Z,49.41
2022-08-03T01:54:21.291Z,49.47
2022-08-03T01:56:52.243Z,49.49
2022-08-03T01:59:22.098Z,49.56
2022-08-03T02:02:15.582Z,49.63
2022-08-03T02:04:42.940Z,49.76
2022-08-03T02:07:14.279Z,49.58
2022-08-03T02:09:47.050Z,49.86
2022-08-03T02:12:18.726Z,49.76
2022-08-03T02:14:51.176Z,50.03
2022-08-03T02:17:38.481Z,49.96
2022-08-03T02:20:12.446Z,50.23
2022-08-03T02:22:42.964Z,50.05
2022-08-03T02:25:14.925Z,50.25
2022-08-03T02:27:56.791Z,50.08
2022-08-03T02:30:31.140Z,50.11
2022-08-03T02:33:01.655Z,50.31
2022-08-03T02:35:33.074Z,50.19
2022-08-03T02:38:04.361Z,50.46
2022-08-03T02:40:34.138Z,50.50
2022-08-03T02:43:07.676Z,50.40
2022-08-03T02:45:45.332Z,50.60
2022-08-03T02:48:18.051Z,50.76
2022-08-03T02:50:48.077Z,50.97
2022-08-03T02:53:18.390Z,51.12
2022-08-03T02:55:49.971Z,51.24
2022-08-03T02:58:21.198Z,51.18
2022-08-03T03:00:52.126Z,51.43
2022-08-03T03:03:22.417Z,51.45
2022-08-03T03:05:55.894Z,51.93
2022-08-03T03:08:28.420Z,52.19
2022-08-03T03:11:00.281Z,52.21
2022-08-03T03:13:31.301Z,52.39
2022-08-03T03:16:02.475Z,52.52
2022-08-03T03:18:33.240Z,52.66
2022-08-03T03:21:04.484Z,52.81
2022-08-03T03:23:35.503Z,52.99
2022-08-03T03:26:04.998Z,53.08
2022-08-03T03:28:36.452Z,53.26
2022-08-03T03:31:06.560Z,53.41
2022-08-03T03:33:36.901Z,53.48
2022-08-03T03:36:07.143Z,53.57
2022-08-03T03:38:36.718Z,53.74
2022-08-03T03:41:06.539Z,53.80
2022-08-03T03:43:36.264Z,53.76
2022-08-03T03:46:06.459Z,54.04
2022-08-03T03:48:35.683Z,53.96
2022-08-03T03:51:05.265Z,53.98
2022-08-03T03:53:34.296Z,53.93
2022-08-03T03:56:03.660Z,53.90
2022-08-03T03:58:34.096Z,54.01
2022-08-03T04:01:03.091Z,54.19
2022-08-03T04:03:32.649Z,54.04
2022-08-03T04:06:19.925Z,54.16
2022-08-03T04:09:12.790Z,54.20
2022-08-03T04:11:47.747Z,54.22
2022-08-03T04:14:20.019Z,54.12
2022-08-03T04:16:51.824Z,54.13
2022-08-03T04:19:26.553Z,54.09
2022-08-03T04:21:59.076Z,53.97
2022-08-03T04:24:34.088Z,54.16
2022-08-03T04:27:05.930Z,54.12
2022-08-03T04:29:48.125Z,54.11
2022-08-03T04:32:19.763Z,54.04
2022-08-03T04:34:48.651Z,54.21
2022-08-03T04:37:24.844Z,54.06
2022-08-03T04:39:57.695Z,54.08
2022-08-03T04:42:27.635Z,54.23
2022-08-03T04:45:01.075Z,54.08
2022-08-03T04:47:33.016Z,54.17
2022-08-03T04:50:03.667Z,54.10
2022-08-03T04:52:34.044Z,54.02
2022-08-03T04:55:03.145Z,54.09
2022-08-03T04:57:31.932Z,54.07
2022-08-03T05:00:03.416Z,54.02
2022-08-03T05:02:33.111Z,53.93
2022-08-03T05:05:02.249Z,53.88
2022-08-03T05:07:36.333Z,54.11
2022-08-03T05:10:15.947Z,53.95
2022-08-03T05:12:47.820Z,53.94
2022-08-03T05:15:16.925Z,53.82
2022-08-03T05:17:45.754Z,54.00
2022-08-03T05:20:18.755Z,53.84
2022-08-03T05:22:47.887Z,53.85
2022-08-03T05:25:17.030Z,53.51
2022-08-03T05:27:48.243Z,53.64
2022-08-03T05:30:29.612Z,53.63
2022-08-03T05:33:03.115Z,53.41
2022-08-03T05:36:00.745Z,53.49
2022-08-03T05:38:28.460Z,53.56
2022-08-03T05:41:22.168Z,53.34
2022-08-03T05:43:47.331Z,53.19
2022-08-03T05:46:16.195Z,53.15
2022-08-03T05:48:44.990Z,52.97
2022-08-03T05:51:14.267Z,52.77
2022-08-03T05:53:44.462Z,52.79
2022-08-03T05:56:15.957Z,52.90
2022-08-03T05:58:47.479Z,52.64
2022-08-03T06:01:17.724Z,52.51
2022-08-03T06:03:46.746Z,52.32
2022-08-03T06:06:16.686Z,52.21
2022-08-03T06:08:48.185Z,51.89
2022-08-03T06:11:17.499Z,51.87
2022-08-03T06:13:47.517Z,51.61
2022-08-03T06:16:16.507Z,51.37
2022-08-03T06:18:45.899Z,50.69
2022-08-03T06:21:16.315Z,50.37
2022-08-03T06:23:54.601Z,50.13
2022-08-03T06:26:26.480Z,49.69
2022-08-03T06:28:55.612Z,49.59
2022-08-03T06:31:33.159Z,49.41
2022-08-03T06:34:32.324Z,49.19
2022-08-03T06:36:58.577Z,49.16
2022-08-03T06:39:31.163Z,48.46
2022-08-03T06:41:59.991Z,48.56
2022-08-03T06:44:28.864Z,48.17
2022-08-03T06:46:58.083Z,48.05
2022-08-03T06:49:27.211Z,47.55
2022-08-03T06:52:05.249Z,47.49
2022-08-03T06:54:36.549Z,47.34
2022-08-03T06:57:07.672Z,46.96
2022-08-03T07:00:09.789Z,47.08
2022-08-03T07:02:28.151Z,46.84
2022-08-03T07:04:58.029Z,46.46
2022-08-03T07:07:26.814Z,46.42
2022-08-03T07:09:57.830Z,46.08
2022-08-03T07:12:29.450Z,45.92
2022-08-03T07:15:02.627Z,45.63
2022-08-03T07:17:33.961Z,45.45
2022-08-03T07:20:06.630Z,45.13
2022-08-03T07:22:35.822Z,44.96
2022-08-03T07:25:06.236Z,44.63
2022-08-03T07:27:35.244Z,44.20
2022-08-03T07:30:08.852Z,43.84
2022-08-03T07:32:50.176Z,43.47
2022-08-03T07:35:24.602Z,43.12
2022-08-03T07:37:55.168Z,42.64
2022-08-03T07:40:25.140Z,42.55
2022-08-03T07:43:02.748Z,42.31
2022-08-03T07:45:31.872Z,41.68
2022-08-03T07:48:00.681Z,41.39
2022-08-03T07:50:29.879Z,41.09
2022-08-03T07:52:59.339Z,40.82
2022-08-03T07:55:29.746Z,40.44
2022-08-03T07:58:07.073Z,40.21
2022-08-03T08:00:36.235Z,39.37
2022-08-03T08:03:05.634Z,39.03
2022-08-03T08:05:34.592Z,38.82
2022-08-03T08:08:04.251Z,38.36
2022-08-03T08:10:33.236Z,37.93
2022-08-03T08:13:02.865Z,37.85
2022-08-03T08:15:33.133Z,37.30
2022-08-03T08:18:02.672Z,36.83
2022-08-03T08:20:34.893Z,36.55
2022-08-03T08:23:10.240Z,36.19
2022-08-03T08:25:57.850Z,36.12
2022-08-03T08:28:32.585Z,35.18
2022-08-03T08:31:02.533Z,34.92
2022-08-03T08:36:21.123Z,33.91
2022-08-03T08:38:50.171Z,33.78
2022-08-03T08:41:19.120Z,33.37
2022-08-03T08:43:47.959Z,33.30
2022-08-03T08:46:22.872Z,33.29
2022-08-03T08:48:54.079Z,32.98
2022-08-03T08:51:50.938Z,32.41
2022-08-03T08:54:18.130Z,32.28
2022-08-03T08:56:49.005Z,31.76
2022-08-03T08:59:18.417Z,31.82
2022-08-03T09:01:47.300Z,31.24
2022-08-03T09:04:16.519Z,31.55
2022-08-03T09:06:58.870Z,30.78
2022-08-03T09:10:10.592Z,30.60
2022-08-03T09:12:40.956Z,30.59
2022-08-03T09:15:23.700Z,30.59
2022-08-03T09:17:55.720Z,30.25
2022-08-03T09:20:27.468Z,30.15
2022-08-03T09:22:58.808Z,30.09
2022-08-03T09:25:35.826Z,29.86
2022-08-03T09:28:10.622Z,29.79
2022-08-03T09:30:41.101Z,29.68
2022-08-03T09:33:11.713Z,29.67
2022-08-03T09:35:53.516Z,29.67
2022-08-03T09:38:26.681Z,29.46
2022-08-03T09:40:59.878Z,29.27
2022-08-03T09:43:45.951Z,28.77
2022-08-03T09:46:14.860Z,29.17
2022-08-03T09:48:43.612Z,29.11
2022-08-03T09:51:32.874Z,28.87
2022-08-03T09:54:05.580Z,28.67
2022-08-03T09:56:45.060Z,28.66
2022-08-03T09:59:23.237Z,28.47
2022-08-03T10:01:52.128Z,28.06
2022-08-03T10:04:21.563Z,28.32
2022-08-03T10:07:06.160Z,27.83
2022-08-03T10:09:35.267Z,27.70
2022-08-03T10:12:12.688Z,27.82
2022-08-03T10:14:44.840Z,27.54
2022-08-03T10:17:13.893Z,27.83
2022-08-03T10:19:43.034Z,27.37
2022-08-03T10:22:16.117Z,27.35
2022-08-03T10:24:51.459Z,27.40
2022-08-03T10:27:22.721Z,27.58
2022-08-03T10:29:54.410Z,27.16
2022-08-03T10:32:28.464Z,27.26
2022-08-03T10:35:20.372Z,27.30
2022-08-03T10:38:00.729Z,27.24
2022-08-03T10:40:49.433Z,27.02
2022-08-03T10:43:22.349Z,27.04
2022-08-03T10:45:52.119Z,27.17
2022-08-03T10:48:22.152Z,26.94
2022-08-03T10:50:52.170Z,26.31
2022-08-03T10:53:36.332Z,26.56
2022-08-03T10:56:41.480Z,26.76
2022-08-03T10:59:12.753Z,26.44
2022-08-03T11:01:59.144Z,26.49
2022-08-03T11:04:30.294Z,26.48
2022-08-03T11:07:22.170Z,26.38
2022-08-03T11:09:53.215Z,26.63
2022-08-03T11:12:30.093Z,26.97
2022-08-03T11:15:02.527Z,26.93
2022-08-03T11:17:33.317Z,27.07
2022-08-03T11:20:03.684Z,27.32
2022-08-03T11:22:50.979Z,27.35
2022-08-03T11:25:53.128Z,27.47
2022-08-03T11:28:29.085Z,27.58
2022-08-03T11:31:49.833Z,27.60
2022-08-03T11:34:19.724Z,27.55
2022-08-03T11:37:24.636Z,27.73
2022-08-03T11:39:56.769Z,27.74
2022-08-03T11:42:44.612Z,27.86
2022-08-03T11:45:14.461Z,27.74
2022-08-03T11:47:51.082Z,27.79
2022-08-03T11:50:21.499Z,27.88
2022-08-03T11:52:51.165Z,28.02
2022-08-03T11:55:21.261Z,27.90
2022-08-03T11:59:18.091Z,28.21
2022-08-03T12:00:40.518Z,28.15
2022-08-03T12:03:12.991Z,27.96
2022-08-03T12:05:51.562Z,27.87
2022-08-03T12:08:32.860Z,28.18
2022-08-03T12:11:05.194Z,27.66
2022-08-03T12:14:35.763Z,27.84
2022-08-03T12:16:33.800Z,27.74
2022-08-03T12:19:06.203Z,28.04
2022-08-03T12:21:35.139Z,28.07
2022-08-03T12:24:06.033Z,28.39
2022-08-03T12:26:45.048Z,28.24
2022-08-03T12:29:27.412Z,28.17
2022-08-03T12:31:56.688Z,28.37
2022-08-03T12:34:47.198Z,28.30
2022-08-03T12:37:22.613Z,28.49
2022-08-03T12:40:00.939Z,28.15
2022-08-03T12:42:34.905Z,28.11
2022-08-03T12:45:22.574Z,27.98
2022-08-03T12:47:53.395Z,28.07
2022-08-03T12:50:32.753Z,28.17
2022-08-03T12:53:03.939Z,28.31
2022-08-03T12:55:40.033Z,27.87
2022-08-03T12:58:34.021Z,28.07
2022-08-03T13:01:09.869Z,27.77
2022-08-03T13:03:49.837Z,28.02
2022-08-03T13:06:20.845Z,28.16
2022-08-03T13:08:51.190Z,28.13
2022-08-03T13:11:50.544Z,27.76
2022-08-03T13:14:19.662Z,27.84
2022-08-03T13:16:49.855Z,27.75
2022-08-03T13:19:18.658Z,27.87
2022-08-03T13:22:03.235Z,27.83
2022-08-03T13:24:34.408Z,27.95
2022-08-03T13:28:01.493Z,27.88
2022-08-03T13:29:55.503Z,27.81
2022-08-03T13:32:24.928Z,27.82
2022-08-03T13:34:53.722Z,27.67
2022-08-03T13:37:23.034Z,27.79
2022-08-03T13:39:59.385Z,27.83
2022-08-03T13:42:31.187Z,27.59
2022-08-03T13:45:00.793Z,27.67
2022-08-03T13:47:29.775Z,27.81
2022-08-03T13:50:01.424Z,27.78
2022-08-03T13:52:33.373Z,27.53
2022-08-03T13:55:03.857Z,27.68
2022-08-03T13:58:03.026Z,27.47
2022-08-03T14:00:27.319Z,27.43
2022-08-03T14:03:05.189Z,27.42
2022-08-03T14:05:37.811Z,27.45
2022-08-03T14:08:07.273Z,27.24
2022-08-03T14:10:37.946Z,27.38
2022-08-03T14:13:07.914Z,27.32
2022-08-03T14:15:37.735Z,27.13
2022-08-03T14:18:15.727Z,27.56
2022-08-03T14:21:00.642Z,27.03
2022-08-03T14:23:31.051Z,27.30
2022-08-03T14:26:00.089Z,27.07
2022-08-03T14:28:28.946Z,27.20
2022-08-03T14:30:57.875Z,27.02
2022-08-03T14:33:27.875Z,27.03
2022-08-03T14:35:57.125Z,27.34
2022-08-03T14:38:26.221Z,27.30
2022-08-03T14:40:55.356Z,27.43
2022-08-03T14:43:24.270Z,27.20
2022-08-03T14:45:53.894Z,26.83
2022-08-03T14:50:34.482Z,26.87
2022-08-03T14:51:13.204Z,26.89
2022-08-03T14:53:42.156Z,26.90
2022-08-03T14:56:11.131Z,26.98
2022-08-03T14:58:40.215Z,26.74
2022-08-03T15:02:04.951Z,26.95
2022-08-03T15:03:58.352Z,26.97
2022-08-03T15:06:27.273Z,27.00
2022-08-03T15:09:21.502Z,26.83
2022-08-03T15:11:45.424Z,27.09
2022-08-03T15:14:14.699Z,26.94
2022-08-03T15:16:44.143Z,26.95
2022-08-03T15:20:03.681Z,26.48
2022-08-03T15:22:02.037Z,26.67
2022-08-03T15:24:30.884Z,26.90
2022-08-03T15:26:59.716Z,26.90
2022-08-03T15:30:05.797Z,26.58
2022-08-03T15:32:17.332Z,26.89
2022-08-03T15:34:50.266Z,26.74
2022-08-03T15:37:20.544Z,26.76
2022-08-03T15:39:58.105Z,26.75
2022-08-03T15:42:29.977Z,26.68
2022-08-03T15:44:59.388Z,26.78
2022-08-03T15:47:28.323Z,26.77
2022-08-03T15:49:57.426Z,26.81
2022-08-03T15:52:27.208Z,26.56
2022-08-03T15:54:56.083Z,26.66
2022-08-03T15:57:25.200Z,26.33
2022-08-03T15:59:54.037Z,26.26
2022-08-03T16:02:23.090Z,26.32
2022-08-03T16:04:52.059Z,26.34
2022-08-03T16:07:41.010Z,26.29
2022-08-03T16:10:29.976Z,26.23
2022-08-03T16:12:59.385Z,26.24
2022-08-03T16:15:28.551Z,26.26
2022-08-03T16:17:57.359Z,26.19
2022-08-03T16:20:31.483Z,26.04
2022-08-03T16:23:11.552Z,26.03
2022-08-03T16:25:43.811Z,26.00
2022-08-03T16:28:19.551Z,25.98
2022-08-03T16:30:48.958Z,26.16
2022-08-03T16:33:18.127Z,26.08
2022-08-03T16:35:49.104Z,26.14
2022-08-03T16:38:19.334Z,26.23
2022-08-03T16:40:51.175Z,26.34
2022-08-03T16:43:21.919Z,26.46
2022-08-03T16:45:51.533Z,26.19
2022-08-03T16:48:20.831Z,26.34
2022-08-03T16:50:49.752Z,26.39
2022-08-03T16:53:19.171Z,26.26
2022-08-03T16:56:06.706Z,26.25
2022-08-03T16:58:41.815Z,26.17
2022-08-03T17:01:22.122Z,26.14
2022-08-03T17:04:01.343Z,26.32
2022-08-03T17:06:36.076Z,26.53
2022-08-03T17:09:10.024Z,26.64
2022-08-03T17:11:47.286Z,26.48
2022-08-03T17:14:21.921Z,26.68
2022-08-03T17:16:53.957Z,26.84
2022-08-03T17:19:25.632Z,26.87
2022-08-03T17:22:01.158Z,27.00
2022-08-03T17:24:34.097Z,26.85
2022-08-03T17:27:08.551Z,27.11
2022-08-03T17:29:44.909Z,27.15
2022-08-03T17:32:19.684Z,27.32
2022-08-03T17:34:50.692Z,27.27
2022-08-03T17:37:49.852Z,27.72
2022-08-03T17:40:12.492Z,27.68
2022-08-03T17:42:50.866Z,27.83
2022-08-03T17:45:20.967Z,27.80
2022-08-03T17:47:57.605Z,27.65
2022-08-03T17:50:40.331Z,28.12
2022-08-03T17:53:23.587Z,28.05
2022-08-03T17:56:07.671Z,28.22
2022-08-03T17:59:15.735Z,28.15
2022-08-03T18:02:26.435Z,28.23
2022-08-03T18:05:16.463Z,28.33
2022-08-03T18:07:50.345Z,28.14
2022-08-03T18:10:34.206Z,28.33
2022-08-03T18:13:10.620Z,28.28
2022-08-03T18:15:43.407Z,28.42
2022-08-03T18:18:16.610Z,28.72
2022-08-03T18:21:01.061Z,28.59
2022-08-03T18:23:37.685Z,28.81
2022-08-03T18:26:12.085Z,28.70
2022-08-03T18:28:42.287Z,28.85
2022-08-03T18:31:59.503Z,28.68
2022-08-03T18:34:18.466Z,28.77
2022-08-03T18:36:55.934Z,28.91
2022-08-03T18:39:25.321Z,28.89
2022-08-03T18:41:54.378Z,28.94
2022-08-03T18:44:46.623Z,29.09
2022-08-03T18:47:50.531Z,29.05
2022-08-03T18:50:39.484Z,29.31
2022-08-03T18:53:21.225Z,29.37
2022-08-03T18:56:01.705Z,29.41
2022-08-03T18:58:40.056Z,29.35
2022-08-03T19:01:59.875Z,29.55
2022-08-03T19:04:11.532Z,29.61
2022-08-03T19:06:42.083Z,29.64
2022-08-03T19:09:24.052Z,29.65
2022-08-03T19:12:13.956Z,29.82
2022-08-03T19:14:56.424Z,30.02
2022-08-03T19:17:29.401Z,29.94
2022-08-03T19:20:01.446Z,30.01
2022-08-03T19:22:32.644Z,30.03
2022-08-03T19:25:01.788Z,30.22
2022-08-03T19:27:32.439Z,30.29
2022-08-03T19:30:06.887Z,30.30
2022-08-03T19:32:40.421Z,30.42
2022-08-03T19:35:18.924Z,30.42
2022-08-03T19:37:48.351Z,30.40
2022-08-03T19:43:11.683Z,30.72
2022-08-03T19:46:05.260Z,30.72
2022-08-03T19:48:38.185Z,30.94
2022-08-03T19:51:12.303Z,30.97
2022-08-03T19:53:45.120Z,31.05
2022-08-03T19:56:15.872Z,31.07
2022-08-03T19:58:45.239Z,31.12
2022-08-03T20:01:22.392Z,31.21
2022-08-03T20:03:52.254Z,31.32
2022-08-03T20:06:23.199Z,31.45
2022-08-03T20:08:53.608Z,31.48
2022-08-03T20:11:28.525Z,31.50
2022-08-03T20:14:20.680Z,31.69
2022-08-03T20:16:55.854Z,31.57
2022-08-03T20:19:25.171Z,31.79
2022-08-03T20:22:02.195Z,31.82
2022-08-03T20:24:34.293Z,31.83
2022-08-03T20:27:08.059Z,32.06
2022-08-03T20:30:05.061Z,32.05
2022-08-03T20:32:30.451Z,32.13
2022-08-03T20:35:01.122Z,32.23
2022-08-03T20:37:30.458Z,32.20
2022-08-03T20:40:00.048Z,32.35
2022-08-03T20:42:28.916Z,32.56
2022-08-03T20:45:05.382Z,32.56
2022-08-03T20:47:50.551Z,32.61
2022-08-03T20:50:21.925Z,32.62
2022-08-03T20:52:51.450Z,32.79
2022-08-03T20:58:10.539Z,32.84
2022-08-03T21:00:40.956Z,32.74
2022-08-03T21:03:09.755Z,32.96
2022-08-03T21:05:48.447Z,32.87
2022-08-03T21:08:24.472Z,32.95
2022-08-03T21:10:57.268Z,32.94
2022-08-03T21:13:02.694Z,30.57
2022-08-03T21:13:07.725Z,32.70
2022-08-03T21:13:31.976Z,32.98
2022-08-03T21:16:11.926Z,32.86
2022-08-03T21:18:49.009Z,33.11
2022-08-03T21:21:20.364Z,33.12
2022-08-03T21:23:52.774Z,33.25
2022-08-03T21:26:24.225Z,33.14
2022-08-03T21:28:55.437Z,33.17
2022-08-03T21:31:27.087Z,33.08
2022-08-03T21:33:59.554Z,33.12
2022-08-03T21:36:32.209Z,32.95
2022-08-03T21:39:02.827Z,33.14
2022-08-03T21:41:33.151Z,33.24
2022-08-03T21:44:04.320Z,33.39
2022-08-03T21:46:36.954Z,33.21
2022-08-03T21:50:04.479Z,33.28
2022-08-03T21:52:02.825Z,33.34
2022-08-03T21:54:35.529Z,33.35
2022-08-03T21:57:13.066Z,33.56
2022-08-03T21:59:51.634Z,33.71
2022-08-03T22:02:24.300Z,33.78
2022-08-03T22:04:56.384Z,33.81
2022-08-03T22:07:27.969Z,33.73
2022-08-03T22:09:58.438Z,33.61
2022-08-03T22:12:30.580Z,33.54
2022-08-03T22:15:02.140Z,33.88
2022-08-03T22:17:55.060Z,33.85
2022-08-03T22:20:22.871Z,33.98
2022-08-03T22:22:56.421Z,34.03
2022-08-03T22:25:29.354Z,33.89
2022-08-03T22:28:00.435Z,34.09
2022-08-03T22:30:30.919Z,34.24
2022-08-03T22:33:01.862Z,34.27
2022-08-03T22:35:47.517Z,34.39
2022-08-03T22:38:18.300Z,34.39
2022-08-03T22:40:49.329Z,34.90
2022-08-03T22:43:21.520Z,34.98
2022-08-03T22:46:08.999Z,35.19
2022-08-03T22:48:41.732Z,35.24
2022-08-03T22:51:11.064Z,35.45
2022-08-03T22:53:41.163Z,35.75
2022-08-03T22:56:10.136Z,35.80
2022-08-03T22:58:38.957Z,35.95
2022-08-03T23:01:09.858Z,36.46
2022-08-03T23:04:00.341Z,36.46
2022-08-03T23:06:34.803Z,36.91
2022-08-03T23:09:06.483Z,37.02
2022-08-03T23:11:37.994Z,37.02
2022-08-03T23:14:14.485Z,37.12
2022-08-03T23:16:45.158Z,37.37
2022-08-03T23:19:17.223Z,37.68
2022-08-03T23:22:03.599Z,37.88
2022-08-03T23:24:36.302Z,37.96
2022-08-03T23:27:06.851Z,38.03
2022-08-03T23:29:37.083Z,38.39
2022-08-03T23:32:07.896Z,38.40
2022-08-03T23:34:57.767Z,38.63
2022-08-03T23:37:27.501Z,39.01
2022-08-03T23:39:58.443Z,39.27
2022-08-03T23:42:27.418Z,39.17
2022-08-03T23:45:04.751Z,39.13
2022-08-03T23:47:46.436Z,39.40
2022-08-03T23:50:17.477Z,39.69
2022-08-03T23:52:56.299Z,39.55
2022-08-03T23:55:47.096Z,39.73
2022-08-03T23:58:34.386Z,39.91
